Florida AWOS List, Phone Numbers

USA |  
| Search AWOS

Rocky Mountain States: Montana | Wyoming | Colorado | New Mexico

Complete weather reports: Florida

Legend: KFNL = METAR available Follow your local AWOS on AV Mobile = METAR available on AV Mobile
Station Florida Location Frequency Phone
KAQQICAO ID KAQQ Apalachicola, Apalachicola
KAAFFAA ID AAF, ASOS, KAAF 241753Z AUTO 19010KT 10SM CLR 25/19 A3001 Follow KAAF on AV Mobile APALACHICOLA MUNICIPAL AIRPORT 119.925 850-653-8271
KNAEICAO ID KNAE Astor, Bombing Range Detachment Astor
KAVOFAA ID AVO, AWOS-3 AVON PARK 118.725 863-453-4223
KAGRFAA ID AGR Avon Park Gunnery Range
KBOWFAA ID BOW, AWOS-3, KBOW 241750Z VRB03KT 10SM SCT080 28/17 A2999 Follow KBOW on AV Mobile Bartow Municipal 123.775 863-533-9004
F95FAA ID F95, AWOS-AV, K2V5 241845Z AUTO 30012G19KT 10SM CLR 18/M12 A2994 RMK AO2 T01811119 Follow  on AV Mobile BLOUNTSTOWN 119.350 850-674-1347
KBCTFAA ID BCT, AWOS-3, KBCT 241745Z 14008KT 10SM CLR M/M A2999 Follow KBCT on AV Mobile Boca Raton, Boca Raton Airport 121.125 561-391-2696
K1J0FAA ID 1J0, K1J0 182158Z AUTO 03011G23KT 4SM -RA BR SCT041 BKN049 OVC055 14/12 A2996 RMK AO2 PK WND 01031/2109 SLP132 P0002 T01390122 Follow K1J0 on AV Mobile TRI COUNTY AIRPORT
KBKVFAA ID BKV, ASOS, KBKV 241753Z 00000KT 10SM SCT042 28/16 A3000 RMK AO2 SLP158 60000 T02780161 10289 20150 58015 Follow KBKV on AV Mobile BROOKSVILLE HERNANDO CO AIRPORT 134.725 352-799-5881
K1J4ICAO ID K1J4 Cape San Blas Coast Guard Station
KNZCICAO ID KNZC Cecil, Naval Air Station
2ISFAA ID 2IS, AWOS-3, K2V5 241845Z AUTO 30012G19KT 10SM CLR 18/M12 A2994 RMK AO2 T01811119 Follow  on AV Mobile CLEWISTON 124.175 863-983-7020
KX53ICAO ID KX53 Clewiston
KCOFFAA ID COF, KCOF 241758Z AUTO 11009KT 10SM CLR 27/21 A3000 RMK AO2 SLP163 T02670214 10267 20217 57017 Follow KCOF on AV Mobile Cocoa / Patrick Air Force Base
KXMRFAA ID XMR, KXMR 241758Z AUTO 15010KT 10SM CLR 28/19 A2999 RMK AO2 SLP159 T02770190 10280 20197 58015 Follow KXMR on AV Mobile Cocoa Beach, Cape Canaveral Air Force Station Skid Strip
KCEWFAA ID CEW, ASOS, KCEW 241753Z AUTO 20012G17KT 10SM CLR 28/14 A2998 Follow KCEW on AV Mobile CRESTVIEW SIKES AIRPORT 119.275 850-682-1237
KEGIFAA ID EGI, KEGI 241755Z 20010KT 10SM FEW040 27/16 A2997 RMK AO2A SLP150 T02670157 10270 20182 58014 $ Follow KEGI on AV Mobile Duke Field / Eglin Auxiliary
KCTYFAA ID CTY, KCTY 241753Z AUTO 25006KT 28/17 A2998 Follow KCTY on AV Mobile CROSS CITY AIRPORT
KCGCFAA ID CGC, AWOS-3, KCGC 241815Z AUTO 29006KT 10SM CLR 27/18 A2999 RMK AO2 Follow KCGC on AV Mobile CRYSTAL RIVER 118.325 352-563-6600
KDABFAA ID DAB, ASOS, KDAB 241753Z 10008KT 070V130 10SM FEW035TCU FEW075 28/19 A3000 Follow KDAB on AV Mobile DAYTONA BEACH INTERNATIONAL 386-253-7469
54JFAA ID 54J, AWOS-3P, K2V5 241845Z AUTO 30012G19KT 10SM CLR 18/M12 A2994 RMK AO2 T01811119 Follow  on AV Mobile DEFUNIAK SPRINGS 118.725 850-892-0147
KDEDFAA ID DED, AWOS-3, KDED 241715Z AUTO 15007KT 10SM SCT047 SCT060 28/17 A3001 RMK AO1 Follow KDED on AV Mobile DELAND 119.575 386-740-5811
KDTSFAA ID DTS, ASOS, KDTS 241823Z AUTO 21004KT 9SM BKN013 24/18 A2999 RMK AO2 T02390178 TSNO Follow KDTS on AV Mobile DESTIN-FT WALTON BEACH AIRPORT 133.925 850-654-7128
KX91ICAO ID KX91 Egmont Key Coast Guard Station
KFHBFAA ID FHB, AWOS-3, KFHB 241815Z AUTO 09007KT 10SM SCT090 24/19 A2998 RMK AO1 Follow KFHB on AV Mobile FERNANDINA BEACH 118.075 904-277-7323
KFXEFAA ID FXE, ASOS, KFXE 241753Z 11010KT 10SM CLR 29/18 A2998 Follow KFXE on AV Mobile FORT LAUDERDALE EXECUTIVE 954-772-2537
KFLLFAA ID FLL, ASOS, KFLL 241753Z 12010KT 10SM FEW035 28/19 A2998 Follow KFLL on AV Mobile FORT LAUDERDALE/HOLLYWOOD 954-359-7857
KFMYFAA ID FMY, ASOS, KFMY 241753Z 24009G15KT 10SM CLR 29/15 A2999 RMK AO2 SLP156 T02890150 10294 20183 58017 Follow KFMY on AV Mobile FORT MYERS PAGE FIELD 239-936-2318
KRSWFAA ID RSW, ASOS, KRSW 241753Z AUTO 00000KT 10SM CLR 28/16 A2999 Follow KRSW on AV Mobile FORT MYERS SW FL INTERNATIONAL AIRPORT 239-561-0966
KX82ICAO ID KX82 Fort Pierce Coast Guard Station
KFPRFAA ID FPR, ASOS, KFPR 241753Z 13014KT 10SM CLR 28/19 A2999 Follow KFPR on AV Mobile FORT PIERCE ST LUCIE 772-489-4281
KX86ICAO ID KX86 Fowey Rocks Coast Guard Station
KX89ICAO ID KX89 Ft. Myers Beach Coast Guard Station
KGNVFAA ID GNV, ASOS, KGNV 241753Z 18009KT 10SM SCT050 28/16 A2998 Follow KGNV on AV Mobile GAINESVILLE REGIONAL AIRPORT 352-335-8672
KHWOFAA ID HWO, ASOS, KHWO 241753Z 11008KT 080V140 10SM BKN047 BKN055 29/19 A3000 RMK AO2 SLP157 T02890194 10300 20211 58013 Follow KHWO on AV Mobile HOLLYWOOD NORTH PERRY AIRPORT 954-983-5904
X51FAA ID X51, AWOS-3, K2V5 241845Z AUTO 30012G19KT 10SM CLR 18/M12 A2994 RMK AO2 T01811119 Follow  on AV Mobile HOMESTEAD 118.375 (305) 247-2791
KHSTFAA ID HST, KHST 241758Z AUTO 24007KT 210V270 10SM CLR 31/17 A2999 RMK AO2 SLP159 T03060167 10306 20175 57015 $ Follow KHST on AV Mobile Homestead Air Force Base
KIMMFAA ID IMM, AWOS-3, KIMM 241815Z AUTO 20005KT 7SM CLR 32/13 A2999 RMK A01 P000 Follow KIMM on AV Mobile IMMOKALEE 118.525 239-657-2038
KINFFAA ID INF, AWOS-3, KINF 241815Z AUTO 00000KT 10SM SCT042 BKN055 BKN065 28/16 A2999 RMK AO2 Follow KINF on AV Mobile INVERNESS 119.975 352-341-0264
KX84ICAO ID KX84 Islamorada Coast Guard Station
KHEGFAA ID HEG, AWOS-3 JACKSONVILLE 119.275 904-695-0334
KCRGFAA ID CRG, ASOS, KCRG 241753Z 09006KT 10SM FEW033 BKN049 OVC060 27/19 A2999 RMK AO2 SLP153 T02670189 10294 20200 58012 Follow KCRG on AV Mobile JACKSONVILLE CRAIG MUN 904-646-4670
KJAXFAA ID JAX, ASOS, KJAX 241756Z 05006KT 10SM SCT040 BKN080 28/19 A2997 Follow KJAX on AV Mobile JACKSONVILLE INTERNATIONAL 904-741-4304
KNIPFAA ID NIP, KNIP 241753Z VRB06KT 10SM SCT040 SCT065 30/14 A2998 RMK AO2 SLP148 T03000139 10300 20189 58017 Follow KNIP on AV Mobile JACKSONVILLE NAVAL AIR STN
KVQQFAA ID VQQ, AWOS-3, KVQQ 241750Z VRB03KT 10SM SCT075 28/17 A2998 Follow KVQQ on AV Mobile Jacksonville, Cecil Field Airport 125.275 904-778-6934
KNENFAA ID NEN NOLF WHITEHOUSE FIELD, FL
KX80ICAO ID KX80 Jupiter Inlet Coast Guard Station
KEYWFAA ID EYW, ASOS, KEYW 241753Z 13008KT 10SM BKN070 27/21 A3001 Follow KEYW on AV Mobile KEY WEST INTERNATIONAL AIRPORT 119.65 305-292-4046
KNQXFAA ID NQX, KNQX 241753Z 13007KT 10SM FEW025 BKN070 27/21 A3001 RMK AO2 SLP160 T02670206 10272 20228 58007 $ Follow KNQX on AV Mobile KEY WEST NAVAL AIR STATION
K42JFAA ID 42J, AWOS-3, K42J 241815Z AUTO 20008KT 10SM FEW037 BKN046 BKN050 28/15 A2998 RMK AO1 Follow K42J on AV Mobile KEYSTONE HEIGHTS 124.275 352-473-8273
KLCQFAA ID LCQ, AWOS-3 LAKE CITY 120.675 386-754-9366
X07FAA ID X07, AWOS-3, K2V5 241845Z AUTO 30012G19KT 10SM CLR 18/M12 A2994 RMK AO2 T01811119 Follow  on AV Mobile LAKE WALES 124.225 863-678-1334
KX81ICAO ID KX81 Lake Worth Inlet
KLALFAA ID LAL, AWOS-3PT, KLAL 241750Z 17005KT 10SM BKN042 28/15 A2999 Follow KLAL on AV Mobile Lakeland Regional 118.025 863-834-2030
KLEEFAA ID LEE, ASOS, KLEE 241753Z VRB03KT 10SM CLR 28/18 A3000 RMK AO2 SLP158 T02780183 10278 20189 58014 Follow KLEE on AV Mobile LEESBURG REGIONAL AIRPORT 134.325 352-787-1565
24JFAA ID 24J, AWOS-3, K2V5 241845Z AUTO 30012G19KT 10SM CLR 18/M12 A2994 RMK AO2 T01811119 Follow  on AV Mobile LIVE OAK 118.225 386-362-1731
KX88ICAO ID KX88 Marathon Coast Guard Station
KMTHFAA ID MTH, ASOS, KMTH 241753Z AUTO VRB04KT 10SM BKN065 28/21 A3001 RMK AO2 SLP161 T02780206 10283 20233 58006 Follow KMTH on AV Mobile MARATHON AIRPORT 135.525 305-743-8373
KMKYFAA ID MKY, AWOS-3, KMKY 241815Z AUTO 25007KT 10SM CLR 27/18 A3000 RMK AO1 Follow KMKY on AV Mobile MARCO ISLAND 120.075 239-394-8187
KMAIFAA ID MAI, ASOS, KMAI 241753Z AUTO 22007KT 10SM SCT065 BKN080 28/14 A2996 RMK AO2 SLP143 T02780139 10283 20178 58016 PWINO Follow KMAI on AV Mobile MARIANNA MUNICIPAL AIRPORT 133.525 850-482-6082
KHRTFAA ID HRT, KHRT 241813Z AUTO 19009KT 10SM BKN016 24/17 A2998 RMK AO2 $ Follow KHRT on AV Mobile Hurlburt Field
KNRBFAA ID NRB, KNRB 241752Z 08007KT 8SM SCT040 BKN100 24/18 A3000 RMK AO2 SLP157 T02440183 10256 20194 58009 $ Follow KNRB on AV Mobile MAYPORT NAVAL AIR FACILITY
KMLBFAA ID MLB, ASOS, KMLB 241753Z 11011KT 10SM SCT055 28/18 A2999 Follow KMLB on AV Mobile MELBOURNE INTERNATIONAL 321-723-7403
KCOIFAA ID COI, AWOS-3 Merritt Island, Merritt Island Airport 119.025 321-986-8864
KTNTFAA ID TNT, AWOS-3 MIAMI 119.075 (239) 695-9198
KX87ICAO ID KX87 Miami Beach Coast Guard Station
KAMXICAO ID KAMX Miami Nexrad
KTMBFAA ID TMB, ASOS, KTMB 241753Z 25007KT 10SM CLR 29/14 A2999 Follow KTMB on AV Mobile KENDALL-TAMIAMI EXEC AIRPORT 305-235-1332
KMIAFAA ID MIA, ASOS, KMIA 241753Z VRB05KT 10SM FEW045 28/18 A2999 Follow KMIA on AV Mobile MIAMI INTERNATIONAL AIRPORT 305-870-0235
KOPFFAA ID OPF, KOPF 241753Z VRB04KT 10SM FEW050 30/17 A2998 Follow KOPF on AV Mobile MIAMI OPA LOCKA AIRPORT
KNFJFAA ID NFJ CHOCTAW, WHITING FIELD, NOLF
KNSEFAA ID NSE, KNSE 241756Z 19009G15KT 10SM SCT040 27/15 A2997 RMK AO2 SLP134 FU DSNT NE T02720150 10272 20178 58011 Follow KNSE on AV Mobile MILTON WHITING FIELD (NORTH)
KNDZFAA ID NDZ, KNDZ 241756Z 19010KT 10SM FEW040 28/14 A2997 RMK AO2 SLP135 T02780144 10278 20189 58010 Follow KNDZ on AV Mobile MILTON WHITING FIELD (SOUTH)
KAPFFAA ID APF, ASOS, KAPF 241753Z 24009KT 10SM FEW035 26/18 A3000 Follow KAPF on AV Mobile NAPLES MUNICIPAL AIRPORT 239-643-9886
KRRFICAO ID KRRF New Port Richey, Tampa Bay Executive Airport
KEVBFAA ID EVB, AWOS-3, KEVB 241747Z AUTO 10009KT 10SM SKC 27/20 A3001 Follow KEVB on AV Mobile New Smyrna Beach, New Smyrna Beach Municipal Airport 124.625 386-409-4705
KOCFFAA ID OCF, AWOS-3, KOCF 241750Z 17004KT 7SM BKN050 27/17 A3000 Follow KOCF on AV Mobile Ocala, Ocala International Airport-Jim Taylor Field 128.125 352-237-8525
KOBEFAA ID OBE, AWOS-3, KOBE 241815Z AUTO 19007KT 10SM CLR 29/19 A2998 RMK AO2 Follow KOBE on AV Mobile Okeechobee County Airport 118.675 863-467-1148
KORLFAA ID ORL, ASOS, KORL 241753Z 21008KT 10SM FEW049 29/17 A2998 RMK AO2 SLP154 T02940167 10300 20206 58018 Follow KORL on AV Mobile ORLANDO EXECUTIVE AIRPORT 407-658-6753
KMCOFAA ID MCO, ASOS, KMCO 241753Z 16008KT 10SM SCT045 31/17 A2998 Follow KMCO on AV Mobile ORLANDO INTERNATIONAL AIRPORT 407-855-5235
KSFBFAA ID SFB, ASOS, KSFB 241753Z 17007KT 10SM FEW050 FEW060 29/18 A2998 Follow KSFB on AV Mobile ORLANDO SANFORD AIRPORT 407-321-9384
KISMFAA ID ISM, AWOS-3, KISM 241748Z 16006KT 10SM SCT060 29/19 A2999 Follow KISM on AV Mobile Orlando, Kissimmee Municipal Airport 128.775 407-847-0533
KOMNFAA ID OMN, AWOS-3, KOMN 241750Z 10008KT 10SM SCT030 27/18 A3000 Follow KOMN on AV Mobile Ormond Beach, Ormond Beach Municipal Airport 118.475 386-615-7084
28JFAA ID 28J, AWOS-3, K2V5 241845Z AUTO 30012G19KT 10SM CLR 18/M12 A2994 RMK AO2 T01811119 Follow  on AV Mobile PALATKA 119.92 386-312-2212
KXFLFAA ID XFL, AWOS-3, KXFL 241750Z 13010KT 4SM HZ SCT080 28/18 A2999 Follow KXFL on AV Mobile PALM COAST 128.325 386-437-7334
KECPFAA ID ECP, ASOS, KECP 241753Z 16011KT 10SM CLR 26/18 A2998 Follow KECP on AV Mobile PANAMA CITY 119.975 850-235-7857
KPFNICAO ID KPFN, KPFN 030253Z VRB03KT 10SM FEW023 25/23 A2989 Follow KPFN on AV Mobile PANAMA CITY-BAY CTY INTERNATIONAL
KPAMFAA ID PAM, KPAM 241758Z AUTO 22010KT 10SM FEW190 24/23 A3000 RMK AO2 SLP162 T02350231 10239 20186 57012 $ Follow KPAM on AV Mobile Tyndall Air Force Base
KPNSFAA ID PNS, ASOS, KPNS 241753Z 19009KT 10SM FEW017 24/18 A2998 Follow KPNS on AV Mobile PENSACOLA REGIONAL AIRPORT 850-436-4799
KNPAFAA ID NPA, KNPA 241756Z 19008KT 150V210 10SM BKN014 23/19 A2998 RMK AO2 SLP155 BKN V SCT T02330189 10239 20189 58007 Follow KNPA on AV Mobile Pensacola, Naval Air Station
K40JFAA ID 40J, AWOS-3PT, K40J 241815Z AUTO 23009KT 10SM SCT032 BKN041 BKN048 27/19 A2998 RMK AO2 Follow K40J on AV Mobile PERRY-FOLEY AIRPORT 118.375 850-838-3526
FA54FAA ID FA54, Belfort CORAL CREEK
KPCMFAA ID PCM, AWOS-3, KPCM 241815Z AUTO 17005KT 10SM BKN043 30/16 A3000 RMK AO2 Follow KPCM on AV Mobile Plant City, Plant City Municipal Airport 120.025 813-764-8259
KPMPFAA ID PMP, ASOS, KPMP 241753Z 12010KT 10SM FEW044 28/20 A3000 RMK AO2 SLP158 T02780200 10289 20211 58009 Follow KPMP on AV Mobile POMPANO BEACH AIRPARK 954-783-3720
K1J3ICAO ID K1J3 Ponce De Leon Inlet
KPGDFAA ID PGD, ASOS, KPGD 241753Z 25009KT 10SM FEW045 28/18 A3001 RMK AO2 SLP162 T02830178 10289 20178 58015 Follow KPGD on AV Mobile PUNTA GORDA CHARLOTTE COUNTY 135.675 941-639-0076
K1J5ICAO ID K1J5 Santa Rosa Coast Guard Station
KSRQFAA ID SRQ, ASOS, KSRQ 241753Z 27011KT 10SM CLR 26/18 A3000 Follow KSRQ on AV Mobile SARASOTA/BRADENTON INTERNATIONAL . 124.375 941-359-0117
KSEFFAA ID SEF, AWOS-3 SEBRING 119.475 863-655-6424
KSGJFAA ID SGJ, AWOS-3, KSGJ 241758Z 12012KT 5SM HZ FEW065 26/19 A3000 RMK AO2 SLP158 T02610194 10261 20189 58012 $ Follow KSGJ on AV Mobile St. Augustine, St. Augustine Airport 904-824-7084
KPIEFAA ID PIE, ASOS, KPIE 241753Z 01006KT 10SM FEW033 26/17 A3000 Follow KPIE on AV Mobile ST PETERSBURG/CLEARWATER 727-531-3456
KSPGFAA ID SPG, ASOS, KSPG 241753Z VRB06KT 10SM CLR 27/17 A2999 RMK AO2 SLP154 T02670172 10267 20211 58014 Follow KSPG on AV Mobile ST PETERSBURG WHITTED AIRPORT 118.875 727-821-4334
KSUAFAA ID SUA, AWOS-3, KSUA 241747Z 12010G15KT 7SM SCT020 BKN050 27/20 A3001 Follow KSUA on AV Mobile Stuart, Witham Field Airport 772-692-7399
KTLHFAA ID TLH, ASOS, KTLH 241753Z 20008KT 10SM FEW050 SCT075 30/14 A2996 Follow KTLH on AV Mobile TALLAHASSEE REGIONAL AIRPORT 850-576-3665
KTBWICAO ID KTBW Tampa Bay Area
KMCFFAA ID MCF, KMCF 241758Z AUTO 26006KT 10SM CLR 28/21 A3000 RMK AO2 SLP162 60000 T02790205 10279 20178 57015 Follow KMCF on AV Mobile Macdill Air Force Base, Fl.
KTPAFAA ID TPA, ASOS, KTPA 241753Z 22008KT 10SM FEW033 26/18 A3000 Follow KTPA on AV Mobile TAMPA INTERNATIONAL AIRPORT 813-873-7228
KTPFFAA ID TPF, AWOS-3, KTPF 241815Z AUTO 20004KT 10SM CLR 28/18 A2999 RMK AO2 Follow KTPF on AV Mobile Tampa, Peter O Knight Airport 118.925 813-251-6824
KVDFFAA ID VDF, AWOS-3, KVDF 241815Z AUTO 00000KT 10SM CLR 30/15 A2999 RMK AO2 Follow KVDF on AV Mobile Tampa, Vandenberg Airport 121.125 813-630-0924
KVLGICAO ID KVLG The Villages
KVVGICAO ID KVVG, KVVG 241815Z AUTO 21008KT 10SM 29/18 A2999 RMK AO2 Follow KVVG on AV Mobile The Villages
KX68ICAO ID KX68 Titusville, NASA Shuttle Landing Facility
KTIXFAA ID TIX, KTIX 241748Z 10014KT 7SM SCT030 27/18 A2999 Follow KTIX on AV Mobile Titusville
KX21FAA ID X21, AWOS-3 Titusville, Arthur Dunn Air Park 119.725 321-385-0383
KTTSFAA ID TTS, KTTS 241758Z AUTO 17010KT 10SM CLR 29/18 A2999 RMK AO2 SLP159 T02890178 10292 20187 58014 Follow KTTS on AV Mobile Titusville, NASA Shuttle Landing Facility
KVPSFAA ID VPS, KVPS 241755Z 17010KT 6SM HZ FEW017 24/20 A2998 RMK AO2A SLP158 T02370197 58005 $ Follow KVPS on AV Mobile Valparaiso / Eglin Air Force Base
KVNCFAA ID VNC, AWOS-3, KVNC 241815Z AUTO 25008KT 10SM CLR 24/19 A3001 RMK AO2 Follow KVNC on AV Mobile VENICE 119.275
KX90ICAO ID KX90 Venice Long Range Navigation
KVRBFAA ID VRB, ASOS, KVRB 241753Z AUTO 11011KT 10SM CLR 28/21 A3000 Follow KVRB on AV Mobile VERO BEACH MUNICIPAL AIRPORT 772-978-9535
F45FAA ID F45, AWOS-3, K2V5 241845Z AUTO 30012G19KT 10SM CLR 18/M12 A2994 RMK AO2 T01811119 Follow  on AV Mobile WEST PALM BEACH 119.975 561-630-6932
KLNAFAA ID LNA, AWOS-3 WEST PALM BEACH 119.925 561-964-0308
KPBIFAA ID PBI, ASOS, KPBI 241753Z 13011G16KT 10SM SCT033 SCT039 SCT060 29/17 A2998 Follow KPBI on AV Mobile PALM BEACH INTERNATIONAL 123.75 561-683-2548
FD38FAA ID FD38, Belfort WELLINGTON AERO CLUB
X60FAA ID X60, AWOS-3, K2V5 241845Z AUTO 30012G19KT 10SM CLR 18/M12 A2994 RMK AO2 T01811119 Follow  on AV Mobile WILLISTON 118.425 352-528-9949
KGIFFAA ID GIF, ASOS, KGIF 241753Z AUTO A2999 RMK AO2 SLPNO 58020 PWINO TSNO $ Follow KGIF on AV Mobile WINTER HAVENS GILBERT AIRPORT 133.675 863-956-2097
KZPHFAA ID ZPH, ASOS, KZPH 181915Z AUTO 18008G14KT 10SM SCT034 SCT040 BKN120 26/20 A2999 RMK AO2 LTG DSNT S AND W Follow KZPH on AV Mobile ZEPHYRHILLS 118.975 813-780-0031

Click on the AV Mobile icon AV Mobile icon by any station to follow that AWOS feed on AirportView.net Mobile.

Garmin aera 796 $1999 at Avionics Specialists LLC
Bose A20 Aviation Headsets $995 at Avionics Specialists LLC